createdAt,value
2022-10-31T00:00:42.972Z,99.993896
2022-10-31T00:01:50.686Z,99.993896
2022-10-31T00:02:59.595Z,99.993896
2022-10-31T00:04:08.952Z,99.993896
2022-10-31T00:05:17.600Z,99.993896
2022-10-31T00:06:26.286Z,99.993896
2022-10-31T00:07:34.947Z,99.993896
2022-10-31T00:08:43.734Z,99.993896
2022-10-31T00:09:53.385Z,99.993896
2022-10-31T00:11:02.060Z,99.993896
2022-10-31T00:12:10.717Z,99.993896
2022-10-31T00:14:29.095Z,99.993896
2022-10-31T00:15:37.779Z,99.993896
2022-10-31T00:16:46.454Z,99.993896
2022-10-31T00:17:56.333Z,99.993896
2022-10-31T00:19:05.790Z,99.993896
2022-10-31T00:20:15.474Z,99.993896
2022-10-31T00:21:23.152Z,99.993896
2022-10-31T00:22:32.870Z,99.993896
2022-10-31T00:23:42.537Z,99.993896
2022-10-31T00:24:51.218Z,99.993896
2022-10-31T00:26:00.918Z,99.993896
2022-10-31T00:27:10.577Z,99.993896
2022-10-31T00:29:28.943Z,99.993896
2022-10-31T00:30:37.629Z,99.993896
2022-10-31T00:31:47.345Z,99.993896
2022-10-31T00:32:57.245Z,99.993896
2022-10-31T00:34:06.684Z,99.993896
2022-10-31T00:35:15.339Z,99.993896
2022-10-31T00:36:25.015Z,99.993896
2022-10-31T00:37:34.847Z,99.993896
2022-10-31T00:38:42.471Z,99.993896
2022-10-31T00:39:50.135Z,99.993896
2022-10-31T00:40:59.809Z,99.993896
2022-10-31T00:42:09.471Z,99.993896
2022-10-31T00:43:18.176Z,99.993896
2022-10-31T00:44:27.833Z,99.993896
2022-10-31T00:45:37.514Z,99.993896
2022-10-31T00:46:47.151Z,99.993896
2022-10-31T00:47:54.818Z,99.993896
2022-10-31T00:49:03.540Z,99.993896
2022-10-31T00:50:14.190Z,99.993896
2022-10-31T00:51:22.852Z,99.993896
2022-10-31T00:52:31.507Z,99.993896
2022-10-31T00:53:40.161Z,99.993896
2022-10-31T00:54:49.834Z,99.993896
2022-10-31T00:55:59.501Z,99.993896
2022-10-31T00:57:08.153Z,99.993896
2022-10-31T00:58:16.997Z,99.993896
2022-10-31T00:59:26.492Z,99.993896
2022-10-31T01:00:36.209Z,99.993896
2022-10-31T01:01:45.962Z,99.993896
2022-10-31T01:02:55.530Z,99.993896
2022-10-31T01:04:05.241Z,99.993896
2022-10-31T01:05:14.950Z,99.993896
2022-10-31T01:06:23.626Z,99.993896
2022-10-31T01:07:31.287Z,99.993896
2022-10-31T01:08:40.956Z,99.993896
2022-10-31T01:09:50.609Z,99.993896
2022-10-31T01:10:59.274Z,99.993896
2022-10-31T01:12:08.988Z,99.993896
2022-10-31T01:13:17.740Z,99.993896
2022-10-31T01:14:27.333Z,99.993896
2022-10-31T01:15:34.983Z,99.993896
2022-10-31T01:16:43.685Z,99.993896
2022-10-31T01:17:53.393Z,99.993896
2022-10-31T01:19:02.042Z,99.993896
2022-10-31T01:20:10.774Z,99.993896
2022-10-31T01:21:19.438Z,99.993896
2022-10-31T01:22:28.089Z,99.993896
2022-10-31T01:23:37.783Z,99.993896
2022-10-31T01:24:46.492Z,99.993896
2022-10-31T01:25:55.149Z,99.993896
2022-10-31T01:27:04.813Z,99.993896
2022-10-31T01:28:13.487Z,99.993896
2022-10-31T01:29:22.147Z,99.993896
2022-10-31T01:30:30.800Z,99.993896
2022-10-31T01:31:39.448Z,99.993896
2022-10-31T01:32:49.114Z,99.993896
2022-10-31T01:33:58.809Z,99.993896
2022-10-31T01:35:06.489Z,99.993896
2022-10-31T01:36:16.226Z,99.993896
2022-10-31T01:37:25.907Z,99.993896
2022-10-31T01:38:34.591Z,99.993896
2022-10-31T01:39:43.260Z,99.993896
2022-10-31T01:40:53.053Z,99.993896
2022-10-31T01:42:02.707Z,99.993896
2022-10-31T01:43:11.414Z,99.993896
2022-10-31T01:44:21.052Z,99.993896
2022-10-31T01:45:30.705Z,99.993896
2022-10-31T01:46:38.373Z,99.993896
2022-10-31T01:47:47.051Z,99.993896
2022-10-31T01:48:56.772Z,99.993896
2022-10-31T01:50:05.474Z,99.993896
2022-10-31T01:51:14.129Z,99.993896
2022-10-31T01:52:23.815Z,99.993896
2022-10-31T01:53:32.487Z,99.993896
2022-10-31T01:54:42.171Z,99.993896
2022-10-31T01:55:49.829Z,99.993896
2022-10-31T01:56:58.535Z,99.993896
2022-10-31T01:58:08.297Z,99.993896
2022-10-31T01:59:15.835Z,99.993896
2022-10-31T02:00:25.507Z,99.993896
2022-10-31T02:01:35.282Z,99.993896
2022-10-31T02:02:43.966Z,99.993896
2022-10-31T02:03:52.540Z,99.993896
2022-10-31T02:05:02.231Z,99.993896
2022-10-31T02:06:10.952Z,99.993896
2022-10-31T02:07:19.597Z,99.993896
2022-10-31T02:08:28.284Z,99.993896
2022-10-31T02:09:36.977Z,99.993896
2022-10-31T02:10:46.654Z,99.993896
2022-10-31T02:11:55.326Z,99.993896
2022-10-31T02:13:03.340Z,99.993896
2022-10-31T02:14:12.713Z,99.993896
2022-10-31T02:15:20.468Z,99.993896
2022-10-31T02:16:30.131Z,99.993896
2022-10-31T02:17:38.782Z,99.993896
2022-10-31T02:18:47.472Z,99.993896
2022-10-31T02:19:57.133Z,99.993896
2022-10-31T02:21:05.817Z,99.993896
2022-10-31T02:22:15.496Z,99.993896
2022-10-31T02:23:25.157Z,99.993896
2022-10-31T02:24:34.800Z,99.993896
2022-10-31T02:25:43.534Z,99.993896
2022-10-31T02:26:53.208Z,99.993896
2022-10-31T02:28:03.332Z,99.993896
2022-10-31T02:29:12.526Z,99.993896
2022-10-31T02:30:20.188Z,99.993896
2022-10-31T02:31:28.845Z,99.993896
2022-10-31T02:32:38.530Z,99.993896
2022-10-31T02:33:47.185Z,99.993896
2022-10-31T02:34:55.844Z,99.993896
2022-10-31T02:36:04.496Z,99.993896
2022-10-31T02:37:13.162Z,99.993896
2022-10-31T02:38:22.882Z,99.993896
2022-10-31T02:39:31.544Z,99.993896
2022-10-31T02:40:40.199Z,99.993896
2022-10-31T02:41:50.861Z,99.993896
2022-10-31T02:42:59.992Z,99.993896
2022-10-31T02:44:09.324Z,99.993896
2022-10-31T02:45:18.976Z,99.993896
2022-10-31T02:46:27.645Z,99.993896
2022-10-31T02:47:37.315Z,99.993896
2022-10-31T02:48:46.992Z,99.993896
2022-10-31T02:49:55.653Z,99.993896
2022-10-31T02:51:05.327Z,99.993896
2022-10-31T02:52:14.028Z,99.993896
2022-10-31T02:53:23.700Z,99.993896
2022-10-31T02:54:32.383Z,99.993896
2022-10-31T02:55:42.584Z,99.993896
2022-10-31T02:56:52.299Z,99.993896
2022-10-31T02:58:02.362Z,99.993896
2022-10-31T02:59:09.617Z,99.993896
2022-10-31T03:00:26.625Z,99.993896
2022-10-31T03:01:35.701Z,99.993896
2022-10-31T03:02:44.429Z,99.993896
2022-10-31T03:03:54.023Z,99.993896
2022-10-31T03:05:01.803Z,99.993896
2022-10-31T03:06:10.553Z,99.993896
2022-10-31T03:07:20.295Z,99.993896
2022-10-31T03:08:29.997Z,99.993896
2022-10-31T03:09:39.842Z,99.993896
2022-10-31T03:10:49.514Z,99.993896
2022-10-31T03:11:59.228Z,99.993896
2022-10-31T03:13:08.987Z,99.993896
2022-10-31T03:14:16.678Z,99.993896
2022-10-31T03:15:24.411Z,99.993896
2022-10-31T03:16:34.094Z,99.993896
2022-10-31T03:17:42.784Z,99.993896
2022-10-31T03:18:51.637Z,99.993896
2022-10-31T03:20:00.294Z,99.993896
2022-10-31T03:21:10.046Z,99.993896
2022-10-31T03:22:19.772Z,99.993896
2022-10-31T03:23:27.629Z,99.993896
2022-10-31T03:24:35.373Z,99.993896
2022-10-31T03:25:45.136Z,99.993896
2022-10-31T03:26:54.007Z,99.993896
2022-10-31T03:28:02.915Z,99.993896
2022-10-31T03:29:12.184Z,99.993896
2022-10-31T03:30:20.486Z,99.993896
2022-10-31T03:31:30.198Z,99.993896
2022-10-31T03:32:37.885Z,99.993896
2022-10-31T03:33:46.607Z,99.993896
2022-10-31T03:34:56.333Z,99.993896
2022-10-31T03:36:05.131Z,99.993896
2022-10-31T03:37:13.831Z,99.993896
2022-10-31T03:38:22.568Z,99.993896
2022-10-31T03:39:31.284Z,99.993896
2022-10-31T03:40:40.998Z,99.993896
2022-10-31T03:41:48.773Z,99.993896
2022-10-31T03:42:57.737Z,99.993896
2022-10-31T03:44:07.195Z,99.993896
2022-10-31T03:45:16.034Z,99.993896
2022-10-31T03:46:24.766Z,99.993896
2022-10-31T03:47:33.599Z,99.993896
2022-10-31T03:48:43.322Z,99.993896
2022-10-31T03:49:53.059Z,99.993896
2022-10-31T03:51:01.893Z,99.993896
2022-10-31T03:52:09.572Z,99.993896
2022-10-31T03:53:19.255Z,99.993896
2022-10-31T03:54:27.959Z,99.993896
2022-10-31T03:55:35.735Z,99.993896
2022-10-31T03:56:45.482Z,99.993896
2022-10-31T03:57:55.235Z,99.993896
2022-10-31T03:59:05.008Z,99.993896
2022-10-31T04:00:14.760Z,99.993896
2022-10-31T04:01:23.628Z,99.993896
2022-10-31T04:02:32.382Z,99.993896
2022-10-31T04:03:41.954Z,99.993896
2022-10-31T04:04:50.654Z,99.993896
2022-10-31T04:06:00.418Z,99.993896
2022-10-31T04:07:09.116Z,99.993896
2022-10-31T04:08:17.838Z,99.993896
2022-10-31T04:09:27.530Z,99.993896
2022-10-31T04:10:36.280Z,99.993896
2022-10-31T04:11:45.011Z,99.993896
2022-10-31T04:12:54.780Z,99.993896
2022-10-31T04:14:03.476Z,99.993896
2022-10-31T04:15:13.186Z,99.993896
2022-10-31T04:16:20.928Z,99.993896
2022-10-31T04:17:28.624Z,99.993896
2022-10-31T04:18:38.329Z,99.993896
2022-10-31T04:19:47.024Z,99.993896
2022-10-31T04:20:55.712Z,99.993896
2022-10-31T04:22:04.470Z,99.993896
2022-10-31T04:23:14.633Z,99.993896
2022-10-31T04:24:23.887Z,99.993896
2022-10-31T04:25:31.593Z,99.993896
2022-10-31T04:26:39.293Z,99.993896
2022-10-31T04:27:49.084Z,99.993896
2022-10-31T04:28:58.725Z,99.993896
2022-10-31T04:30:07.458Z,99.993896
2022-10-31T04:31:17.185Z,99.993896
2022-10-31T04:32:25.843Z,99.993896
2022-10-31T04:33:35.589Z,99.993896
2022-10-31T04:34:43.296Z,99.993896
2022-10-31T04:35:51.970Z,99.993896
2022-10-31T04:37:01.683Z,99.993896
2022-10-31T04:38:11.411Z,99.993896
2022-10-31T04:39:22.730Z,99.993896
2022-10-31T04:40:31.827Z,99.993896
2022-10-31T04:41:41.568Z,99.993896
2022-10-31T04:42:51.288Z,99.993896
2022-10-31T04:43:58.970Z,99.993896
2022-10-31T04:45:06.779Z,99.993896
2022-10-31T04:46:17.545Z,99.993896
2022-10-31T04:47:27.216Z,99.993896
2022-10-31T04:48:35.923Z,99.993896
2022-10-31T04:49:44.657Z,99.993896
2022-10-31T04:50:53.408Z,99.993896
2022-10-31T04:52:03.162Z,99.993896
2022-10-31T04:53:11.922Z,99.993896
2022-10-31T04:54:21.658Z,99.993896
2022-10-31T04:55:31.430Z,99.993896
2022-10-31T04:56:40.173Z,99.993896
2022-10-31T04:57:48.909Z,99.993896
2022-10-31T04:58:57.611Z,99.993896
2022-10-31T05:00:07.302Z,99.993896
2022-10-31T05:01:17.224Z,99.993896
2022-10-31T05:02:25.860Z,99.993896
2022-10-31T05:03:33.558Z,99.993896
2022-10-31T05:04:43.314Z,99.993896
2022-10-31T05:05:53.072Z,99.993896
2022-10-31T05:07:01.793Z,99.993896
2022-10-31T05:08:11.551Z,99.993896
2022-10-31T05:09:20.251Z,99.993896
2022-10-31T05:10:30.042Z,99.993896
2022-10-31T05:11:38.747Z,99.993896
2022-10-31T05:12:48.533Z,99.993896
2022-10-31T05:13:58.337Z,99.993896
2022-10-31T05:15:08.071Z,99.993896
2022-10-31T05:16:16.810Z,99.993896
2022-10-31T05:17:25.519Z,99.993896
2022-10-31T05:18:36.237Z,99.993896
2022-10-31T05:19:45.952Z,99.993896
2022-10-31T05:20:53.673Z,99.993896
2022-10-31T05:22:02.420Z,99.993896
2022-10-31T05:23:12.114Z,99.993896
2022-10-31T05:24:21.844Z,99.993896
2022-10-31T05:25:30.605Z,99.993896
2022-10-31T05:26:39.387Z,99.993896
2022-10-31T05:27:49.105Z,99.993896
2022-10-31T05:28:58.842Z,99.993896
2022-10-31T05:30:08.541Z,99.993896
2022-10-31T05:31:17.293Z,99.993896
2022-10-31T05:32:27.037Z,99.993896
2022-10-31T05:33:37.765Z,99.993896
2022-10-31T05:34:47.492Z,99.993896
2022-10-31T05:35:57.242Z,99.993896
2022-10-31T05:37:07.026Z,99.993896
2022-10-31T05:38:16.991Z,99.993896
2022-10-31T05:39:25.696Z,99.993896
2022-10-31T05:40:33.442Z,99.993896
2022-10-31T05:41:43.266Z,99.993896
2022-10-31T05:42:52.055Z,99.993896
2022-10-31T05:44:01.893Z,99.993896
2022-10-31T05:45:11.623Z,99.993896
2022-10-31T05:46:20.362Z,99.993896
2022-10-31T05:47:30.245Z,99.993896
2022-10-31T05:48:39.982Z,99.993896
2022-10-31T05:49:50.094Z,99.993896
2022-10-31T05:50:59.058Z,99.993896
2022-10-31T05:52:08.945Z,99.993896
2022-10-31T05:53:17.938Z,99.993896
2022-10-31T05:54:26.858Z,99.993896
2022-10-31T05:55:36.001Z,99.993896
2022-10-31T05:56:43.729Z,99.993896
2022-10-31T05:57:53.462Z,99.993896
2022-10-31T05:59:02.210Z,99.993896
2022-10-31T06:00:11.158Z,99.993896
2022-10-31T06:01:20.962Z,99.993896
2022-10-31T06:02:29.622Z,99.993896
2022-10-31T06:03:39.740Z,99.993896
2022-10-31T06:04:48.551Z,99.993896
2022-10-31T06:05:56.246Z,99.993896
2022-10-31T06:07:05.896Z,99.993896
2022-10-31T06:08:14.602Z,99.993896
2022-10-31T06:09:24.289Z,99.993896
2022-10-31T06:10:33.024Z,99.993896
2022-10-31T06:11:41.752Z,99.993896
2022-10-31T06:12:52.503Z,99.993896
2022-10-31T06:14:00.301Z,99.993896
2022-10-31T06:15:07.930Z,99.993896
2022-10-31T06:16:17.692Z,99.993896
2022-10-31T06:17:27.439Z,99.993896
2022-10-31T06:18:37.129Z,99.993896
2022-10-31T06:19:45.926Z,99.993896
2022-10-31T06:20:54.674Z,99.993896
2022-10-31T06:22:04.406Z,99.993896
2022-10-31T06:23:13.146Z,99.993896
2022-10-31T06:24:22.836Z,99.993896
2022-10-31T06:25:32.507Z,99.993896
2022-10-31T06:26:41.208Z,99.993896
2022-10-31T06:27:49.919Z,99.993896
2022-10-31T06:29:01.373Z,99.993896
2022-10-31T06:30:07.521Z,99.993896
2022-10-31T06:31:17.278Z,99.993896
2022-10-31T06:32:25.966Z,99.993896
2022-10-31T06:33:34.673Z,99.993896
2022-10-31T06:34:44.407Z,99.993896
2022-10-31T06:35:53.170Z,99.993896
2022-10-31T06:37:01.928Z,99.993896
2022-10-31T06:38:11.668Z,99.993896
2022-10-31T06:39:22.377Z,99.993896
2022-10-31T06:40:32.126Z,99.993896
2022-10-31T06:41:39.838Z,99.993896
2022-10-31T06:42:47.545Z,99.658203
2022-10-31T06:43:57.294Z,99.09668
2022-10-31T06:45:07.002Z,98.583984
2022-10-31T06:46:16.800Z,98.028564
2022-10-31T06:47:25.481Z,97.515869
2022-10-31T06:48:34.196Z,96.960449
2022-10-31T06:49:43.926Z,96.813965
2022-10-31T06:50:55.838Z,96.099854
2022-10-31T06:52:02.372Z,95.233154
2022-10-31T06:53:12.298Z,94.476318
2022-10-31T06:54:21.991Z,93.762207
2022-10-31T06:55:32.659Z,92.797852
2022-10-31T06:56:42.402Z,92.346191
2022-10-31T06:57:51.131Z,91.693115
2022-10-31T06:59:01.844Z,90.83252
2022-10-31T07:00:09.503Z,90.319824
2022-10-31T07:01:17.384Z,89.569092
2022-10-31T07:02:27.114Z,89.221191
2022-10-31T07:03:35.791Z,88.000488
2022-10-31T07:04:45.521Z,87.792969
2022-10-31T07:05:55.260Z,87.347412
2022-10-31T07:07:03.983Z,86.834717
2022-10-31T07:08:14.727Z,86.590576
2022-10-31T07:09:22.415Z,86.187744
2022-10-31T07:10:31.184Z,86.187744
2022-10-31T07:11:40.860Z,85.333252
2022-10-31T07:12:49.562Z,84.924316
2022-10-31T07:13:58.274Z,84.515381
2022-10-31T07:15:08.069Z,84.173584
2022-10-31T07:16:17.779Z,83.972168
2022-10-31T07:17:29.983Z,83.764648
2022-10-31T07:18:37.191Z,83.361816
2022-10-31T07:19:45.932Z,83.319092
2022-10-31T07:20:55.669Z,83.282471
2022-10-31T07:22:04.418Z,82.775879
2022-10-31T07:23:13.123Z,82.672119
2022-10-31T07:24:23.047Z,82.330322
2022-10-31T07:25:31.745Z,81.921387
2022-10-31T07:26:41.585Z,81.781006
2022-10-31T07:27:51.259Z,81.378174
2022-10-31T07:28:58.993Z,81.134033
2022-10-31T07:30:08.652Z,80.322266
2022-10-31T07:31:17.360Z,80.285645
2022-10-31T07:32:27.146Z,79.473877
2022-10-31T07:33:36.847Z,79.577637
2022-10-31T07:34:47.496Z,79.541016
2022-10-31T07:35:56.345Z,78.729248
2022-10-31T07:37:06.047Z,78.082275
2022-10-31T07:38:14.761Z,78.283691
2022-10-31T07:39:24.469Z,78.045654
2022-10-31T07:40:33.229Z,77.642822
2022-10-31T07:41:41.940Z,77.404785
2022-10-31T07:42:51.713Z,77.301025
2022-10-31T07:44:01.397Z,77.099609
2022-10-31T07:45:11.099Z,77.203369
2022-10-31T07:46:20.835Z,76.861572
2022-10-31T07:47:29.745Z,76.721191
2022-10-31T07:48:38.451Z,76.220703
2022-10-31T07:49:47.217Z,75.274658
2022-10-31T07:50:55.963Z,74.664307
2022-10-31T07:52:05.713Z,74.871826
2022-10-31T07:53:14.431Z,74.328613
2022-10-31T07:54:24.172Z,74.127197
2022-10-31T07:55:33.994Z,74.127197
2022-10-31T07:56:43.786Z,74.395752
2022-10-31T07:57:53.523Z,74.053955
2022-10-31T07:59:03.223Z,73.718262
2022-10-31T08:00:11.993Z,73.248291
2022-10-31T08:01:20.885Z,74.224854
2022-10-31T08:02:30.632Z,74.060059
2022-10-31T08:03:40.407Z,74.969482
2022-10-31T08:04:50.193Z,75.20752
2022-10-31T08:05:59.896Z,75.714111
2022-10-31T08:07:09.617Z,76.116943
2022-10-31T08:08:18.402Z,75.982666
2022-10-31T08:09:26.114Z,76.550293
2022-10-31T08:10:34.873Z,74.829102
2022-10-31T08:11:44.582Z,73.583984
2022-10-31T08:12:53.498Z,73.181152
2022-10-31T08:14:03.901Z,73.278809
2022-10-31T08:15:13.886Z,73.547363
2022-10-31T08:16:22.550Z,72.436523
2022-10-31T08:17:32.312Z,71.09375
2022-10-31T08:18:41.062Z,70.526123
2022-10-31T08:19:48.808Z,68.85376
2022-10-31T08:20:58.565Z,69.689941
2022-10-31T08:22:08.292Z,70.892334
2022-10-31T08:23:18.073Z,70.361328
2022-10-31T08:24:26.958Z,70.19043
2022-10-31T08:25:38.209Z,68.42041
2022-10-31T08:26:46.837Z,67.681885
2022-10-31T08:27:55.532Z,68.585205
2022-10-31T08:29:03.295Z,68.585205
2022-10-31T08:30:13.072Z,68.31665
2022-10-31T08:31:22.868Z,69.519043
2022-10-31T08:32:33.562Z,70.025635
2022-10-31T08:33:43.285Z,69.592285
2022-10-31T08:34:51.999Z,68.920898
2022-10-31T08:36:01.730Z,67.956543
2022-10-31T08:37:10.465Z,67.218018
2022-10-31T08:38:19.507Z,66.485596
2022-10-31T08:39:29.317Z,65.484619
2022-10-31T08:40:38.032Z,66.320801
2022-10-31T08:41:46.733Z,66.186523
2022-10-31T08:42:55.485Z,66.253662
2022-10-31T08:44:05.211Z,65.252686
2022-10-31T08:45:14.943Z,65.087891
2022-10-31T08:46:22.705Z,66.320801
2022-10-31T08:47:31.439Z,66.851807
2022-10-31T08:48:41.153Z,67.285156
2022-10-31T08:49:49.971Z,67.584229
2022-10-31T08:50:58.719Z,67.584229
2022-10-31T08:52:10.657Z,67.285156
2022-10-31T08:53:17.313Z,68.286133
2022-10-31T08:54:27.078Z,67.352295
2022-10-31T08:55:35.815Z,66.851807
2022-10-31T08:56:44.567Z,66.918945
2022-10-31T08:57:54.254Z,66.918945
2022-10-31T08:59:04.050Z,66.619873
2022-10-31T09:00:12.777Z,66.320801
2022-10-31T09:01:22.639Z,68.054199
2022-10-31T09:02:31.194Z,67.120361
2022-10-31T09:03:40.934Z,67.553711
2022-10-31T09:04:48.796Z,67.62085
2022-10-31T09:05:56.607Z,67.852783
2022-10-31T09:07:21.915Z,67.852783
2022-10-31T09:08:17.344Z,67.486572
2022-10-31T09:09:25.671Z,67.156982
2022-10-31T09:10:34.482Z,65.124512
2022-10-31T09:11:44.147Z,64.691162
2022-10-31T09:12:53.882Z,64.331055
2022-10-31T09:14:01.620Z,63.104248
2022-10-31T09:15:09.413Z,62.872314
2022-10-31T09:16:19.200Z,62.805176
2022-10-31T09:17:27.898Z,62.731934
2022-10-31T09:18:36.661Z,62.963867
2022-10-31T09:19:45.433Z,63.659668
2022-10-31T09:20:54.214Z,64.294434
2022-10-31T09:22:04.146Z,64.202881
2022-10-31T09:23:12.878Z,63.07373
2022-10-31T09:24:21.677Z,62.445068
2022-10-31T09:25:30.453Z,61.218262
2022-10-31T09:26:39.227Z,60.687256
2022-10-31T09:27:49.095Z,60.687256
2022-10-31T09:28:58.851Z,60.662842
2022-10-31T09:30:06.568Z,60.162354
2022-10-31T09:31:16.300Z,60.064697
2022-10-31T09:32:25.010Z,60.064697
2022-10-31T09:33:33.780Z,60.26001
2022-10-31T09:34:43.515Z,59.637451
2022-10-31T09:35:53.292Z,59.362793
2022-10-31T09:37:02.025Z,59.735107
2022-10-31T09:38:10.735Z,59.832764
2022-10-31T09:39:19.507Z,59.735107
2022-10-31T09:40:29.342Z,60.131836
2022-10-31T09:41:38.046Z,59.436035
2022-10-31T09:42:46.726Z,59.936523
2022-10-31T09:43:56.501Z,59.338379
2022-10-31T09:45:05.218Z,59.661865
2022-10-31T09:46:13.948Z,59.265137
2022-10-31T09:47:22.671Z,59.918213
2022-10-31T09:48:31.379Z,60.308838
2022-10-31T09:49:41.305Z,61.334229
2022-10-31T09:50:48.855Z,60.931396
2022-10-31T09:51:58.694Z,60.736084
2022-10-31T09:53:08.327Z,61.035156
2022-10-31T09:54:17.153Z,60.736084
2022-10-31T09:55:25.851Z,61.16333
2022-10-31T09:56:35.648Z,61.260986
2022-10-31T09:57:45.468Z,61.566162
2022-10-31T09:58:54.136Z,61.291504
2022-10-31T10:00:03.926Z,61.395264
2022-10-31T10:01:13.773Z,62.164307
2022-10-31T10:02:22.498Z,61.566162
2022-10-31T10:03:31.140Z,61.889648
2022-10-31T10:04:39.892Z,62.860107
2022-10-31T10:05:49.586Z,62.036133
2022-10-31T10:06:57.332Z,62.200928
2022-10-31T10:08:07.230Z,61.706543
2022-10-31T10:09:16.973Z,61.303711
2022-10-31T10:10:25.688Z,61.004639
2022-10-31T10:11:34.430Z,61.676025
2022-10-31T10:12:43.144Z,61.273193
2022-10-31T10:13:52.890Z,60.736084
2022-10-31T10:15:02.662Z,61.834717
2022-10-31T10:16:12.383Z,61.962891
2022-10-31T10:17:21.098Z,62.261963
2022-10-31T10:18:30.864Z,62.93335
2022-10-31T10:19:40.646Z,61.932373
2022-10-31T10:20:49.315Z,61.865234
2022-10-31T10:21:59.073Z,62.133789
2022-10-31T10:23:08.949Z,61.364746
2022-10-31T10:24:18.672Z,61.065674
2022-10-31T10:25:26.780Z,61.16333
2022-10-31T10:26:36.543Z,61.16333
2022-10-31T10:27:46.302Z,61.761475
2022-10-31T10:28:55.001Z,61.090088
2022-10-31T10:30:04.733Z,61.193848
2022-10-31T10:31:14.526Z,61.920166
2022-10-31T10:32:23.246Z,62.591553
2022-10-31T10:33:32.999Z,62.121582
2022-10-31T10:34:42.757Z,61.993408
2022-10-31T10:35:51.468Z,62.420654
2022-10-31T10:37:01.206Z,62.524414
2022-10-31T10:38:09.931Z,61.523438
2022-10-31T10:39:19.679Z,62.750244
2022-10-31T10:40:29.408Z,63.122559
2022-10-31T10:41:39.187Z,63.421631
2022-10-31T10:42:49.084Z,62.792969
2022-10-31T10:43:57.846Z,63.189697
2022-10-31T10:45:05.565Z,62.091064
2022-10-31T10:46:15.307Z,61.724854
2022-10-31T10:47:24.149Z,61.651611
2022-10-31T10:48:34.010Z,62.579346
2022-10-31T10:49:41.715Z,62.884521
2022-10-31T10:50:51.466Z,63.311768
2022-10-31T10:52:19.162Z,63.415527
2022-10-31T10:53:11.874Z,63.61084
2022-10-31T10:54:21.761Z,63.110352
2022-10-31T10:55:31.472Z,63.842773
2022-10-31T10:56:40.265Z,64.117432
2022-10-31T10:57:50.163Z,64.483643
2022-10-31T10:58:58.971Z,63.61084
2022-10-31T11:00:07.727Z,63.7146
2022-10-31T11:01:17.555Z,63.214111
2022-10-31T11:02:25.220Z,63.745117
2022-10-31T11:03:33.478Z,63.842773
2022-10-31T11:04:43.247Z,64.575195
2022-10-31T11:05:52.023Z,64.880371
2022-10-31T11:07:02.878Z,65.380859
2022-10-31T11:08:12.208Z,65.2771
2022-10-31T11:09:21.459Z,65.307617
2022-10-31T11:10:32.294Z,65.710449
2022-10-31T11:11:41.075Z,65.911865
2022-10-31T11:12:49.776Z,66.009521
2022-10-31T11:13:59.518Z,66.009521
2022-10-31T11:15:09.313Z,66.748047
2022-10-31T11:16:18.107Z,67.346191
2022-10-31T11:17:27.842Z,67.016602
2022-10-31T11:18:36.529Z,66.680908
2022-10-31T11:19:46.219Z,66.18042
2022-10-31T11:20:56.413Z,65.881348
2022-10-31T11:22:04.167Z,65.948486
2022-10-31T11:23:13.943Z,66.247559
2022-10-31T11:24:23.663Z,65.948486
2022-10-31T11:25:32.787Z,66.418457
2022-10-31T11:26:41.489Z,65.618896
2022-10-31T11:27:50.179Z,65.588379
2022-10-31T11:28:59.898Z,65.386963
2022-10-31T11:30:09.627Z,65.155029
2022-10-31T11:31:20.884Z,64.056396
2022-10-31T11:32:30.709Z,63.751221
2022-10-31T11:33:41.940Z,63.983154
2022-10-31T11:34:51.242Z,64.752197
2022-10-31T11:36:01.010Z,64.154053
2022-10-31T11:37:09.796Z,64.483643
2022-10-31T11:38:19.539Z,64.984131
2022-10-31T11:39:29.233Z,65.356445
2022-10-31T11:40:38.014Z,65.124512
2022-10-31T11:41:47.738Z,63.690186
2022-10-31T11:42:57.462Z,63.391113
2022-10-31T11:44:06.154Z,64.459229
2022-10-31T11:45:15.966Z,63.061523
2022-10-31T11:46:24.697Z,63.690186
2022-10-31T11:47:34.471Z,64.691162
2022-10-31T11:48:42.258Z,62.493896
2022-10-31T11:49:50.257Z,63.793945
2022-10-31T11:50:58.950Z,63.494873
2022-10-31T11:52:07.724Z,62.524414
2022-10-31T11:53:16.414Z,63.421631
2022-10-31T11:54:26.172Z,64.056396
2022-10-31T11:55:34.905Z,64.154053
2022-10-31T11:56:43.595Z,64.654541
2022-10-31T11:57:53.370Z,64.453125
2022-10-31T11:59:03.153Z,64.654541
2022-10-31T12:00:12.890Z,64.550781
2022-10-31T12:01:21.674Z,65.124512
2022-10-31T12:02:30.397Z,63.891602
2022-10-31T12:03:40.160Z,63.525391
2022-10-31T12:04:49.047Z,63.824463
2022-10-31T12:05:56.759Z,64.520264
2022-10-31T12:07:06.559Z,64.892578
2022-10-31T12:08:16.294Z,63.891602
2022-10-31T12:09:26.054Z,63.763428
2022-10-31T12:10:34.760Z,63.232422
2022-10-31T12:11:43.453Z,61.730957
2022-10-31T12:12:53.213Z,62.390137
2022-10-31T12:14:04.163Z,63.421631
2022-10-31T12:15:12.842Z,64.324951
2022-10-31T12:16:22.508Z,64.72168
2022-10-31T12:17:31.272Z,64.221191
2022-10-31T12:18:40.018Z,64.550781
2022-10-31T12:19:50.015Z,65.283203
2022-10-31T12:20:58.535Z,65.917969
2022-10-31T12:22:08.294Z,66.516113
2022-10-31T12:23:15.962Z,67.822266
2022-10-31T12:24:25.696Z,66.589355
2022-10-31T12:25:35.432Z,66.387939
2022-10-31T12:26:45.214Z,66.357422
2022-10-31T12:27:53.917Z,66.186523
2022-10-31T12:29:03.772Z,66.821289
2022-10-31T12:30:13.498Z,66.717529
2022-10-31T12:31:23.288Z,67.651367
2022-10-31T12:32:32.033Z,68.054199
2022-10-31T12:33:39.883Z,68.52417
2022-10-31T12:34:49.653Z,67.718506
2022-10-31T12:35:59.385Z,67.822266
2022-10-31T12:37:08.126Z,67.29126
2022-10-31T12:38:16.914Z,67.590332
2022-10-31T12:39:25.664Z,66.387939
2022-10-31T12:40:35.492Z,67.449951
2022-10-31T12:41:45.757Z,67.883301
2022-10-31T12:42:54.322Z,68.786621
2022-10-31T12:44:04.068Z,69.189453
2022-10-31T12:45:12.872Z,69.189453
2022-10-31T12:46:22.603Z,69.488525
2022-10-31T12:47:32.458Z,69.390869
2022-10-31T12:48:41.155Z,69.592285
2022-10-31T12:49:50.890Z,69.793701
2022-10-31T12:50:59.613Z,69.287109
2022-10-31T12:52:07.312Z,69.189453
2022-10-31T12:53:17.031Z,69.287109
2022-10-31T12:54:26.770Z,69.158936
2022-10-31T12:55:36.596Z,69.354248
2022-10-31T12:56:45.271Z,69.158936
2022-10-31T12:57:53.993Z,69.354248
2022-10-31T12:59:03.844Z,69.158936
2022-10-31T13:00:12.749Z,69.158936
2022-10-31T13:01:21.661Z,68.95752
2022-10-31T13:02:31.129Z,68.85376
2022-10-31T13:03:40.835Z,69.122314
2022-10-31T13:04:50.547Z,69.226074
2022-10-31T13:06:00.308Z,68.725586
2022-10-31T13:07:09.117Z,69.927979
2022-10-31T13:08:18.883Z,69.32373
2022-10-31T13:09:26.636Z,68.688965
2022-10-31T13:10:35.372Z,69.091797
2022-10-31T13:11:45.141Z,68.359375
2022-10-31T13:12:53.907Z,68.554688